sensor_id;sensor_type;location;lat;lon;timestamp;P1;durP1;ratioP1;P2;durP2;ratioP2
62338;SDS011;48368;53.406;6.214;2023-12-28T00:00:32;8.90;;;5.57;;
62338;SDS011;48368;53.406;6.214;2023-12-28T00:02:58;11.60;;;5.72;;
62338;SDS011;48368;53.406;6.214;2023-12-28T00:05:23;9.13;;;5.45;;
62338;SDS011;48368;53.406;6.214;2023-12-28T00:07:49;9.60;;;5.65;;
62338;SDS011;48368;53.406;6.214;2023-12-28T00:10:21;8.43;;;5.10;;
62338;SDS011;48368;53.406;6.214;2023-12-28T00:12:57;15.38;;;5.70;;
62338;SDS011;48368;53.406;6.214;2023-12-28T00:15:23;7.82;;;5.15;;
62338;SDS011;48368;53.406;6.214;2023-12-28T00:17:48;12.57;;;5.70;;
62338;SDS011;48368;53.406;6.214;2023-12-28T00:20:14;9.25;;;4.72;;
62338;SDS011;48368;53.406;6.214;2023-12-28T00:22:40;11.20;;;5.07;;
62338;SDS011;48368;53.406;6.214;2023-12-28T00:25:08;12.23;;;5.10;;
62338;SDS011;48368;53.406;6.214;2023-12-28T00:27:33;14.38;;;5.43;;
62338;SDS011;48368;53.406;6.214;2023-12-28T00:30:00;15.85;;;5.78;;
62338;SDS011;48368;53.406;6.214;2023-12-28T00:32:26;12.07;;;5.10;;
62338;SDS011;48368;53.406;6.214;2023-12-28T00:34:51;10.30;;;5.30;;
62338;SDS011;48368;53.406;6.214;2023-12-28T00:37:17;14.45;;;5.32;;
62338;SDS011;48368;53.406;6.214;2023-12-28T00:39:43;14.43;;;4.32;;
62338;SDS011;48368;53.406;6.214;2023-12-28T00:42:09;10.38;;;4.20;;
62338;SDS011;48368;53.406;6.214;2023-12-28T00:44:35;10.68;;;4.55;;
62338;SDS011;48368;53.406;6.214;2023-12-28T00:47:00;13.60;;;4.28;;
62338;SDS011;48368;53.406;6.214;2023-12-28T00:49:26;13.43;;;4.72;;
62338;SDS011;48368;53.406;6.214;2023-12-28T00:51:52;18.48;;;4.88;;
62338;SDS011;48368;53.406;6.214;2023-12-28T00:54:17;14.90;;;4.85;;
62338;SDS011;48368;53.406;6.214;2023-12-28T00:56:43;17.60;;;4.72;;
62338;SDS011;48368;53.406;6.214;2023-12-28T00:59:08;14.07;;;4.55;;
62338;SDS011;48368;53.406;6.214;2023-12-28T01:01:34;14.73;;;4.45;;
62338;SDS011;48368;53.406;6.214;2023-12-28T01:03:59;15.35;;;5.22;;
62338;SDS011;48368;53.406;6.214;2023-12-28T01:06:25;25.52;;;4.50;;
62338;SDS011;48368;53.406;6.214;2023-12-28T01:08:54;32.20;;;5.00;;
62338;SDS011;48368;53.406;6.214;2023-12-28T01:11:20;23.95;;;4.38;;
62338;SDS011;48368;53.406;6.214;2023-12-28T01:13:51;27.05;;;6.05;;
62338;SDS011;48368;53.406;6.214;2023-12-28T01:16:16;18.00;;;3.88;;
62338;SDS011;48368;53.406;6.214;2023-12-28T01:18:42;21.10;;;4.03;;
62338;SDS011;48368;53.406;6.214;2023-12-28T01:21:11;23.50;;;5.15;;
62338;SDS011;48368;53.406;6.214;2023-12-28T01:23:36;15.50;;;3.72;;
62338;SDS011;48368;53.406;6.214;2023-12-28T01:26:02;25.33;;;4.25;;
62338;SDS011;48368;53.406;6.214;2023-12-28T01:28:30;22.55;;;4.75;;
62338;SDS011;48368;53.406;6.214;2023-12-28T01:30:56;29.25;;;4.57;;
62338;SDS011;48368;53.406;6.214;2023-12-28T01:33:21;22.80;;;4.70;;
62338;SDS011;48368;53.406;6.214;2023-12-28T01:35:47;21.10;;;4.13;;
62338;SDS011;48368;53.406;6.214;2023-12-28T01:38:13;17.27;;;3.88;;
62338;SDS011;48368;53.406;6.214;2023-12-28T01:40:43;18.73;;;2.97;;
62338;SDS011;48368;53.406;6.214;2023-12-28T01:43:09;20.25;;;3.90;;
62338;SDS011;48368;53.406;6.214;2023-12-28T01:45:35;28.85;;;4.70;;
62338;SDS011;48368;53.406;6.214;2023-12-28T01:48:01;23.23;;;3.53;;
62338;SDS011;48368;53.406;6.214;2023-12-28T01:50:28;22.35;;;4.35;;
62338;SDS011;48368;53.406;6.214;2023-12-28T01:52:56;28.13;;;4.40;;
62338;SDS011;48368;53.406;6.214;2023-12-28T01:55:25;21.88;;;5.05;;
62338;SDS011;48368;53.406;6.214;2023-12-28T01:57:52;27.58;;;4.60;;
62338;SDS011;48368;53.406;6.214;2023-12-28T02:00:19;26.42;;;4.35;;
62338;SDS011;48368;53.406;6.214;2023-12-28T02:02:49;21.17;;;5.15;;
62338;SDS011;48368;53.406;6.214;2023-12-28T02:05:16;29.80;;;5.22;;
62338;SDS011;48368;53.406;6.214;2023-12-28T02:07:42;20.88;;;3.65;;
62338;SDS011;48368;53.406;6.214;2023-12-28T02:10:08;21.58;;;6.43;;
62338;SDS011;48368;53.406;6.214;2023-12-28T02:12:34;25.88;;;4.10;;
62338;SDS011;48368;53.406;6.214;2023-12-28T02:15:00;26.98;;;4.85;;
62338;SDS011;48368;53.406;6.214;2023-12-28T02:17:37;21.10;;;5.07;;
62338;SDS011;48368;53.406;6.214;2023-12-28T02:20:08;26.77;;;4.75;;
62338;SDS011;48368;53.406;6.214;2023-12-28T02:22:35;18.98;;;4.25;;
62338;SDS011;48368;53.406;6.214;2023-12-28T02:25:04;17.77;;;3.88;;
62338;SDS011;48368;53.406;6.214;2023-12-28T02:27:31;29.30;;;4.38;;
62338;SDS011;48368;53.406;6.214;2023-12-28T02:30:00;20.35;;;5.05;;
62338;SDS011;48368;53.406;6.214;2023-12-28T02:32:32;27.15;;;4.95;;
62338;SDS011;48368;53.406;6.214;2023-12-28T02:35:10;20.35;;;3.15;;
62338;SDS011;48368;53.406;6.214;2023-12-28T02:37:42;21.92;;;5.07;;
62338;SDS011;48368;53.406;6.214;2023-12-28T02:40:10;18.73;;;3.85;;
62338;SDS011;48368;53.406;6.214;2023-12-28T02:42:37;25.20;;;5.07;;
62338;SDS011;48368;53.406;6.214;2023-12-28T02:45:02;31.77;;;4.43;;
62338;SDS011;48368;53.406;6.214;2023-12-28T02:47:29;21.17;;;3.22;;
62338;SDS011;48368;53.406;6.214;2023-12-28T02:49:55;17.05;;;3.85;;
62338;SDS011;48368;53.406;6.214;2023-12-28T02:52:24;25.80;;;4.80;;
62338;SDS011;48368;53.406;6.214;2023-12-28T02:54:49;24.33;;;3.60;;
62338;SDS011;48368;53.406;6.214;2023-12-28T02:57:15;19.05;;;4.05;;
62338;SDS011;48368;53.406;6.214;2023-12-28T02:59:44;19.23;;;3.15;;
62338;SDS011;48368;53.406;6.214;2023-12-28T03:02:12;22.88;;;4.22;;
62338;SDS011;48368;53.406;6.214;2023-12-28T03:04:38;23.30;;;3.75;;
62338;SDS011;48368;53.406;6.214;2023-12-28T03:07:04;19.73;;;4.43;;
62338;SDS011;48368;53.406;6.214;2023-12-28T03:09:30;25.13;;;3.70;;
62338;SDS011;48368;53.406;6.214;2023-12-28T03:11:56;22.13;;;3.83;;
62338;SDS011;48368;53.406;6.214;2023-12-28T03:14:21;14.60;;;2.95;;
62338;SDS011;48368;53.406;6.214;2023-12-28T03:16:50;17.98;;;3.08;;
62338;SDS011;48368;53.406;6.214;2023-12-28T03:19:16;22.48;;;3.45;;
62338;SDS011;48368;53.406;6.214;2023-12-28T03:21:41;19.13;;;3.33;;
62338;SDS011;48368;53.406;6.214;2023-12-28T03:24:07;17.90;;;3.50;;
62338;SDS011;48368;53.406;6.214;2023-12-28T03:26:37;11.95;;;2.47;;
62338;SDS011;48368;53.406;6.214;2023-12-28T03:31:32;18.25;;;3.33;;
62338;SDS011;48368;53.406;6.214;2023-12-28T03:33:58;20.70;;;4.38;;
62338;SDS011;48368;53.406;6.214;2023-12-28T03:36:24;14.23;;;3.13;;
62338;SDS011;48368;53.406;6.214;2023-12-28T03:38:49;16.13;;;4.45;;
62338;SDS011;48368;53.406;6.214;2023-12-28T03:41:16;13.48;;;3.25;;
62338;SDS011;48368;53.406;6.214;2023-12-28T03:43:42;19.55;;;2.90;;
62338;SDS011;48368;53.406;6.214;2023-12-28T03:46:09;11.95;;;2.63;;
62338;SDS011;48368;53.406;6.214;2023-12-28T03:48:36;18.35;;;3.58;;
62338;SDS011;48368;53.406;6.214;2023-12-28T03:51:02;13.93;;;2.78;;
62338;SDS011;48368;53.406;6.214;2023-12-28T03:53:28;12.90;;;2.72;;
62338;SDS011;48368;53.406;6.214;2023-12-28T03:55:54;15.55;;;2.90;;
62338;SDS011;48368;53.406;6.214;2023-12-28T03:58:19;19.67;;;3.53;;
62338;SDS011;48368;53.406;6.214;2023-12-28T04:00:45;18.33;;;3.20;;
62338;SDS011;48368;53.406;6.214;2023-12-28T04:03:10;24.23;;;3.55;;
62338;SDS011;48368;53.406;6.214;2023-12-28T04:05:36;15.82;;;3.28;;
62338;SDS011;48368;53.406;6.214;2023-12-28T04:08:02;9.07;;;2.60;;
62338;SDS011;48368;53.406;6.214;2023-12-28T04:10:32;16.27;;;3.20;;
62338;SDS011;48368;53.406;6.214;2023-12-28T04:12:58;14.57;;;4.00;;
62338;SDS011;48368;53.406;6.214;2023-12-28T04:15:25;10.00;;;2.78;;
62338;SDS011;48368;53.406;6.214;2023-12-28T04:17:51;14.35;;;3.60;;
62338;SDS011;48368;53.406;6.214;2023-12-28T04:20:17;16.60;;;3.28;;
62338;SDS011;48368;53.406;6.214;2023-12-28T04:22:42;23.42;;;3.70;;
62338;SDS011;48368;53.406;6.214;2023-12-28T04:25:09;20.33;;;3.67;;
62338;SDS011;48368;53.406;6.214;2023-12-28T04:27:35;14.75;;;3.53;;
62338;SDS011;48368;53.406;6.214;2023-12-28T04:30:01;20.33;;;3.63;;
62338;SDS011;48368;53.406;6.214;2023-12-28T04:32:27;15.85;;;3.08;;
62338;SDS011;48368;53.406;6.214;2023-12-28T04:34:53;17.17;;;4.07;;
62338;SDS011;48368;53.406;6.214;2023-12-28T04:37:21;11.80;;;3.38;;
62338;SDS011;48368;53.406;6.214;2023-12-28T04:39:47;14.63;;;2.80;;
62338;SDS011;48368;53.406;6.214;2023-12-28T04:42:12;14.63;;;3.40;;
62338;SDS011;48368;53.406;6.214;2023-12-28T04:44:41;14.40;;;2.90;;
62338;SDS011;48368;53.406;6.214;2023-12-28T04:47:08;23.67;;;3.42;;
62338;SDS011;48368;53.406;6.214;2023-12-28T04:49:33;16.08;;;3.20;;
62338;SDS011;48368;53.406;6.214;2023-12-28T04:51:59;23.50;;;3.60;;
62338;SDS011;48368;53.406;6.214;2023-12-28T04:54:25;15.43;;;3.30;;
62338;SDS011;48368;53.406;6.214;2023-12-28T04:56:51;17.45;;;3.45;;
62338;SDS011;48368;53.406;6.214;2023-12-28T04:59:16;17.30;;;3.03;;
62338;SDS011;48368;53.406;6.214;2023-12-28T05:01:42;15.10;;;3.70;;
62338;SDS011;48368;53.406;6.214;2023-12-28T05:04:09;23.25;;;3.70;;
62338;SDS011;48368;53.406;6.214;2023-12-28T05:06:35;21.05;;;3.85;;
62338;SDS011;48368;53.406;6.214;2023-12-28T05:09:01;14.75;;;2.72;;
62338;SDS011;48368;53.406;6.214;2023-12-28T05:11:39;16.15;;;3.35;;
62338;SDS011;48368;53.406;6.214;2023-12-28T05:14:04;22.80;;;3.85;;
62338;SDS011;48368;53.406;6.214;2023-12-28T05:16:30;21.02;;;3.63;;
62338;SDS011;48368;53.406;6.214;2023-12-28T05:18:56;16.02;;;3.33;;
62338;SDS011;48368;53.406;6.214;2023-12-28T05:21:22;17.45;;;3.58;;
62338;SDS011;48368;53.406;6.214;2023-12-28T05:23:50;23.27;;;3.05;;
62338;SDS011;48368;53.406;6.214;2023-12-28T05:26:16;18.73;;;3.67;;
62338;SDS011;48368;53.406;6.214;2023-12-28T05:28:41;26.90;;;3.95;;
62338;SDS011;48368;53.406;6.214;2023-12-28T05:31:07;20.42;;;3.28;;
62338;SDS011;48368;53.406;6.214;2023-12-28T05:33:32;21.55;;;3.05;;
62338;SDS011;48368;53.406;6.214;2023-12-28T05:35:58;21.30;;;3.20;;
62338;SDS011;48368;53.406;6.214;2023-12-28T05:38:27;17.80;;;3.90;;
62338;SDS011;48368;53.406;6.214;2023-12-28T05:40:52;19.48;;;3.53;;
62338;SDS011;48368;53.406;6.214;2023-12-28T05:43:18;27.13;;;4.68;;
62338;SDS011;48368;53.406;6.214;2023-12-28T05:45:46;19.08;;;3.50;;
62338;SDS011;48368;53.406;6.214;2023-12-28T05:48:12;29.02;;;5.40;;
62338;SDS011;48368;53.406;6.214;2023-12-28T05:50:37;22.42;;;4.18;;
62338;SDS011;48368;53.406;6.214;2023-12-28T05:53:06;24.05;;;4.35;;
62338;SDS011;48368;53.406;6.214;2023-12-28T05:55:31;25.55;;;5.53;;
62338;SDS011;48368;53.406;6.214;2023-12-28T05:57:57;25.92;;;4.40;;
62338;SDS011;48368;53.406;6.214;2023-12-28T06:00:22;24.75;;;4.53;;
62338;SDS011;48368;53.406;6.214;2023-12-28T06:02:48;23.35;;;3.92;;
62338;SDS011;48368;53.406;6.214;2023-12-28T06:05:16;32.58;;;4.15;;
62338;SDS011;48368;53.406;6.214;2023-12-28T06:07:42;32.88;;;4.55;;
62338;SDS011;48368;53.406;6.214;2023-12-28T06:10:08;20.00;;;3.78;;
62338;SDS011;48368;53.406;6.214;2023-12-28T06:12:34;27.15;;;4.30;;
62338;SDS011;48368;53.406;6.214;2023-12-28T06:15:00;31.88;;;6.25;;
62338;SDS011;48368;53.406;6.214;2023-12-28T06:17:26;22.90;;;4.07;;
62338;SDS011;48368;53.406;6.214;2023-12-28T06:19:52;23.40;;;4.28;;
62338;SDS011;48368;53.406;6.214;2023-12-28T06:22:17;25.90;;;4.18;;
62338;SDS011;48368;53.406;6.214;2023-12-28T06:24:43;30.27;;;4.75;;
62338;SDS011;48368;53.406;6.214;2023-12-28T06:27:09;26.67;;;5.15;;
62338;SDS011;48368;53.406;6.214;2023-12-28T06:29:34;24.63;;;3.95;;
62338;SDS011;48368;53.406;6.214;2023-12-28T06:32:00;23.63;;;3.70;;
62338;SDS011;48368;53.406;6.214;2023-12-28T06:34:25;25.20;;;4.40;;
62338;SDS011;48368;53.406;6.214;2023-12-28T06:36:51;25.80;;;4.57;;
62338;SDS011;48368;53.406;6.214;2023-12-28T06:39:17;27.85;;;4.53;;
62338;SDS011;48368;53.406;6.214;2023-12-28T06:41:46;23.13;;;3.47;;
62338;SDS011;48368;53.406;6.214;2023-12-28T06:44:13;24.08;;;3.35;;
62338;SDS011;48368;53.406;6.214;2023-12-28T06:46:39;18.77;;;3.50;;
62338;SDS011;48368;53.406;6.214;2023-12-28T06:49:06;25.45;;;3.45;;
62338;SDS011;48368;53.406;6.214;2023-12-28T06:51:33;23.17;;;4.68;;
62338;SDS011;48368;53.406;6.214;2023-12-28T06:53:58;27.67;;;5.63;;
62338;SDS011;48368;53.406;6.214;2023-12-28T06:56:24;33.00;;;5.22;;
62338;SDS011;48368;53.406;6.214;2023-12-28T06:58:50;29.23;;;4.57;;
62338;SDS011;48368;53.406;6.214;2023-12-28T07:01:16;32.63;;;4.97;;
62338;SDS011;48368;53.406;6.214;2023-12-28T07:03:41;31.70;;;4.57;;
62338;SDS011;48368;53.406;6.214;2023-12-28T07:06:07;30.88;;;4.38;;
62338;SDS011;48368;53.406;6.214;2023-12-28T07:08:33;27.80;;;4.32;;
62338;SDS011;48368;53.406;6.214;2023-12-28T07:10:59;33.97;;;5.55;;
62338;SDS011;48368;53.406;6.214;2023-12-28T07:13:25;30.08;;;5.93;;
62338;SDS011;48368;53.406;6.214;2023-12-28T07:15:51;26.33;;;4.68;;
62338;SDS011;48368;53.406;6.214;2023-12-28T07:18:17;18.17;;;3.70;;
62338;SDS011;48368;53.406;6.214;2023-12-28T07:20:42;35.35;;;6.15;;
62338;SDS011;48368;53.406;6.214;2023-12-28T07:23:08;28.88;;;5.05;;
62338;SDS011;48368;53.406;6.214;2023-12-28T07:25:34;28.70;;;4.90;;
62338;SDS011;48368;53.406;6.214;2023-12-28T07:28:00;29.35;;;4.75;;
62338;SDS011;48368;53.406;6.214;2023-12-28T07:30:26;35.28;;;5.45;;
62338;SDS011;48368;53.406;6.214;2023-12-28T07:32:52;28.63;;;4.82;;
62338;SDS011;48368;53.406;6.214;2023-12-28T07:35:18;34.83;;;5.18;;
62338;SDS011;48368;53.406;6.214;2023-12-28T07:37:44;30.90;;;5.30;;
62338;SDS011;48368;53.406;6.214;2023-12-28T07:40:11;21.17;;;3.92;;
62338;SDS011;48368;53.406;6.214;2023-12-28T07:42:38;28.38;;;4.80;;
62338;SDS011;48368;53.406;6.214;2023-12-28T07:45:04;30.73;;;5.78;;
62338;SDS011;48368;53.406;6.214;2023-12-28T07:47:30;28.85;;;4.80;;
62338;SDS011;48368;53.406;6.214;2023-12-28T07:49:55;34.00;;;4.72;;
62338;SDS011;48368;53.406;6.214;2023-12-28T07:52:21;29.73;;;4.13;;
62338;SDS011;48368;53.406;6.214;2023-12-28T07:54:47;36.72;;;7.20;;
62338;SDS011;48368;53.406;6.214;2023-12-28T07:57:13;33.95;;;6.30;;
62338;SDS011;48368;53.406;6.214;2023-12-28T07:59:38;28.35;;;5.30;;
62338;SDS011;48368;53.406;6.214;2023-12-28T08:02:04;30.80;;;5.13;;
62338;SDS011;48368;53.406;6.214;2023-12-28T08:04:30;30.13;;;6.35;;
62338;SDS011;48368;53.406;6.214;2023-12-28T08:06:57;33.50;;;6.38;;
62338;SDS011;48368;53.406;6.214;2023-12-28T08:09:23;37.70;;;6.18;;
62338;SDS011;48368;53.406;6.214;2023-12-28T08:11:49;34.95;;;5.95;;
62338;SDS011;48368;53.406;6.214;2023-12-28T08:14:15;29.10;;;5.50;;
62338;SDS011;48368;53.406;6.214;2023-12-28T08:16:40;37.13;;;6.32;;
62338;SDS011;48368;53.406;6.214;2023-12-28T08:19:06;34.53;;;6.10;;
62338;SDS011;48368;53.406;6.214;2023-12-28T08:21:31;28.55;;;5.32;;
62338;SDS011;48368;53.406;6.214;2023-12-28T08:23:57;32.50;;;5.30;;
62338;SDS011;48368;53.406;6.214;2023-12-28T08:26:23;31.45;;;5.95;;
62338;SDS011;48368;53.406;6.214;2023-12-28T08:28:48;38.08;;;6.70;;
62338;SDS011;48368;53.406;6.214;2023-12-28T08:31:14;44.67;;;6.20;;
62338;SDS011;48368;53.406;6.214;2023-12-28T08:33:40;36.03;;;6.85;;
62338;SDS011;48368;53.406;6.214;2023-12-28T08:36:06;34.42;;;5.57;;
62338;SDS011;48368;53.406;6.214;2023-12-28T08:38:32;34.08;;;5.30;;
62338;SDS011;48368;53.406;6.214;2023-12-28T08:40:58;36.50;;;6.63;;
62338;SDS011;48368;53.406;6.214;2023-12-28T08:43:24;34.00;;;7.20;;
62338;SDS011;48368;53.406;6.214;2023-12-28T08:45:49;42.85;;;6.35;;
62338;SDS011;48368;53.406;6.214;2023-12-28T08:48:15;39.63;;;5.90;;
62338;SDS011;48368;53.406;6.214;2023-12-28T08:50:41;41.10;;;6.82;;
62338;SDS011;48368;53.406;6.214;2023-12-28T08:53:06;45.72;;;5.90;;
62338;SDS011;48368;53.406;6.214;2023-12-28T08:55:32;30.92;;;6.32;;
62338;SDS011;48368;53.406;6.214;2023-12-28T08:57:58;44.65;;;8.52;;
62338;SDS011;48368;53.406;6.214;2023-12-28T09:00:24;41.60;;;7.63;;
62338;SDS011;48368;53.406;6.214;2023-12-28T09:02:50;34.20;;;6.55;;
62338;SDS011;48368;53.406;6.214;2023-12-28T09:05:19;45.20;;;7.28;;
62338;SDS011;48368;53.406;6.214;2023-12-28T09:07:44;39.88;;;6.80;;
62338;SDS011;48368;53.406;6.214;2023-12-28T09:10:10;43.38;;;6.45;;
62338;SDS011;48368;53.406;6.214;2023-12-28T09:12:37;48.67;;;7.05;;
62338;SDS011;48368;53.406;6.214;2023-12-28T09:15:04;34.55;;;6.35;;
62338;SDS011;48368;53.406;6.214;2023-12-28T09:17:30;38.55;;;5.82;;
62338;SDS011;48368;53.406;6.214;2023-12-28T09:19:56;35.15;;;7.03;;
62338;SDS011;48368;53.406;6.214;2023-12-28T09:22:23;41.22;;;7.15;;
62338;SDS011;48368;53.406;6.214;2023-12-28T09:24:49;37.85;;;6.97;;
62338;SDS011;48368;53.406;6.214;2023-12-28T09:27:14;36.22;;;5.65;;
62338;SDS011;48368;53.406;6.214;2023-12-28T09:29:40;35.75;;;6.93;;
62338;SDS011;48368;53.406;6.214;2023-12-28T09:32:05;39.50;;;9.60;;
62338;SDS011;48368;53.406;6.214;2023-12-28T09:34:31;34.47;;;5.93;;
62338;SDS011;48368;53.406;6.214;2023-12-28T09:36:57;34.92;;;5.78;;
62338;SDS011;48368;53.406;6.214;2023-12-28T09:39:22;34.13;;;5.78;;
62338;SDS011;48368;53.406;6.214;2023-12-28T09:41:49;34.42;;;5.97;;
62338;SDS011;48368;53.406;6.214;2023-12-28T09:44:22;27.15;;;4.60;;
62338;SDS011;48368;53.406;6.214;2023-12-28T09:46:49;33.58;;;5.32;;
62338;SDS011;48368;53.406;6.214;2023-12-28T09:49:15;39.17;;;6.30;;
62338;SDS011;48368;53.406;6.214;2023-12-28T09:51:41;30.83;;;6.63;;
62338;SDS011;48368;53.406;6.214;2023-12-28T09:54:07;35.35;;;6.25;;
62338;SDS011;48368;53.406;6.214;2023-12-28T09:56:33;35.47;;;6.18;;
62338;SDS011;48368;53.406;6.214;2023-12-28T09:59:00;36.75;;;6.50;;
62338;SDS011;48368;53.406;6.214;2023-12-28T10:01:27;32.88;;;6.10;;
62338;SDS011;48368;53.406;6.214;2023-12-28T10:03:53;27.92;;;4.85;;
62338;SDS011;48368;53.406;6.214;2023-12-28T10:06:18;36.53;;;6.10;;
62338;SDS011;48368;53.406;6.214;2023-12-28T10:08:47;34.40;;;6.00;;
62338;SDS011;48368;53.406;6.214;2023-12-28T10:11:17;33.70;;;6.13;;
62338;SDS011;48368;53.406;6.214;2023-12-28T10:13:44;29.45;;;5.43;;
62338;SDS011;48368;53.406;6.214;2023-12-28T10:16:11;30.08;;;5.38;;
62338;SDS011;48368;53.406;6.214;2023-12-28T10:18:46;31.60;;;4.93;;
62338;SDS011;48368;53.406;6.214;2023-12-28T10:21:13;27.25;;;5.75;;
62338;SDS011;48368;53.406;6.214;2023-12-28T10:23:38;33.20;;;4.82;;
62338;SDS011;48368;53.406;6.214;2023-12-28T10:26:04;32.40;;;6.00;;
62338;SDS011;48368;53.406;6.214;2023-12-28T10:28:34;43.95;;;6.30;;
62338;SDS011;48368;53.406;6.214;2023-12-28T10:31:03;26.30;;;5.47;;
62338;SDS011;48368;53.406;6.214;2023-12-28T10:33:33;27.98;;;5.28;;
62338;SDS011;48368;53.406;6.214;2023-12-28T10:36:00;34.55;;;5.68;;
62338;SDS011;48368;53.406;6.214;2023-12-28T10:38:35;35.33;;;5.60;;
62338;SDS011;48368;53.406;6.214;2023-12-28T10:41:03;36.45;;;4.75;;
62338;SDS011;48368;53.406;6.214;2023-12-28T10:43:40;23.88;;;4.22;;
62338;SDS011;48368;53.406;6.214;2023-12-28T10:46:26;33.70;;;5.15;;
62338;SDS011;48368;53.406;6.214;2023-12-28T10:48:53;28.33;;;5.50;;
62338;SDS011;48368;53.406;6.214;2023-12-28T10:51:24;34.45;;;5.90;;
62338;SDS011;48368;53.406;6.214;2023-12-28T10:53:54;31.20;;;4.97;;
